createdAt,value
2023-01-08T00:01:31.955Z,-1.45
2023-01-08T00:03:59.985Z,-1.46
2023-01-08T00:06:27.947Z,-1.54
2023-01-08T00:08:55.886Z,-1.56
2023-01-08T00:11:23.837Z,-1.68
2023-01-08T00:13:51.828Z,-1.78
2023-01-08T00:16:21.853Z,-1.59
2023-01-08T00:18:49.939Z,-1.56
2023-01-08T00:21:17.958Z,-1.68
2023-01-08T00:23:46.090Z,-1.32
2023-01-08T00:26:16.512Z,-1.28
2023-01-08T00:28:44.477Z,-1.33
2023-01-08T00:31:13.777Z,-1.42
2023-01-08T00:33:43.440Z,-1.61
2023-01-08T00:36:13.198Z,-1.73
2023-01-08T00:38:41.325Z,-1.82
2023-01-08T00:41:09.261Z,-1.83
2023-01-08T00:43:37.491Z,-1.91
2023-01-08T00:46:05.699Z,-2.05
2023-01-08T00:48:37.354Z,-2.10
2023-01-08T00:51:08.237Z,-1.97
2023-01-08T00:53:38.025Z,-1.83
2023-01-08T00:56:08.035Z,-1.79
2023-01-08T00:58:36.272Z,-1.91
2023-01-08T01:01:10.903Z,-1.77
2023-01-08T01:03:39.091Z,-1.83
2023-01-08T01:06:08.794Z,-1.74
2023-01-08T01:08:36.723Z,-1.81
2023-01-08T01:11:08.226Z,-1.98
2023-01-08T01:13:36.153Z,-2.06
2023-01-08T01:16:04.614Z,-2.06
2023-01-08T01:18:32.864Z,-2.04
2023-01-08T01:21:00.787Z,-2.03
2023-01-08T01:23:30.060Z,-1.80
2023-01-08T01:25:58.014Z,-1.67
2023-01-08T01:28:25.942Z,-1.75
2023-01-08T01:30:57.603Z,-1.71
2023-01-08T01:33:25.731Z,-1.81
2023-01-08T01:36:01.225Z,-1.89
2023-01-08T01:38:31.011Z,-1.81
2023-01-08T01:40:58.941Z,-1.86
2023-01-08T01:43:41.330Z,-2.11
2023-01-08T01:46:20.098Z,-2.11
2023-01-08T01:48:48.737Z,-1.99
2023-01-08T01:51:16.722Z,-1.89
2023-01-08T01:53:46.225Z,-2.12
2023-01-08T01:56:14.225Z,-2.26
2023-01-08T01:58:42.139Z,-2.20
2023-01-08T02:01:11.469Z,-2.48
2023-01-08T02:03:40.730Z,-2.45
2023-01-08T02:06:17.514Z,-2.40
2023-01-08T02:08:54.301Z,-2.46
2023-01-08T02:11:26.656Z,-2.52
2023-01-08T02:14:01.229Z,-2.57
2023-01-08T02:16:37.361Z,-2.65
2023-01-08T02:19:12.260Z,-2.54
2023-01-08T02:21:47.110Z,-2.58
2023-01-08T02:24:25.361Z,-2.70
2023-01-08T02:26:56.418Z,-2.59
2023-01-08T02:29:26.281Z,-2.52
2023-01-08T02:31:54.240Z,-2.61
2023-01-08T02:34:22.199Z,-2.57
2023-01-08T02:36:52.281Z,-2.58
2023-01-08T02:39:44.243Z,-2.62
2023-01-08T02:42:17.964Z,-2.58
2023-01-08T02:44:54.341Z,-2.15
2023-01-08T02:47:28.958Z,-2.15
2023-01-08T02:50:03.727Z,-2.15
2023-01-08T02:52:34.056Z,-2.14
2023-01-08T02:55:03.372Z,-2.28
2023-01-08T02:57:34.079Z,-2.24
2023-01-08T03:00:01.996Z,-2.32
2023-01-08T03:02:33.229Z,-2.25
2023-01-08T03:05:05.291Z,-2.29
2023-01-08T03:07:33.538Z,-2.09
2023-01-08T03:10:01.813Z,-1.82
2023-01-08T03:12:40.250Z,-1.50
2023-01-08T03:15:10.443Z,-1.57
2023-01-08T03:17:41.364Z,-1.54
2023-01-08T03:20:12.926Z,-1.48
2023-01-08T03:22:42.474Z,-1.34
2023-01-08T03:25:11.423Z,-1.30
2023-01-08T03:27:44.307Z,-1.33
2023-01-08T03:30:13.806Z,-1.22
2023-01-08T03:32:43.088Z,-1.11
2023-01-08T03:35:13.223Z,-0.96
2023-01-08T03:37:44.912Z,-0.98
2023-01-08T03:40:15.310Z,-1.06
2023-01-08T03:42:44.709Z,-1.04
2023-01-08T03:45:13.053Z,-0.76
2023-01-08T03:47:41.979Z,-0.86
2023-01-08T03:50:12.736Z,-1.01
2023-01-08T03:52:40.647Z,-1.07
2023-01-08T03:55:09.269Z,-1.17
2023-01-08T03:57:37.162Z,-1.05
2023-01-08T04:00:08.115Z,-0.88
2023-01-08T04:02:36.152Z,-0.84
2023-01-08T04:05:04.122Z,-0.91
2023-01-08T04:07:32.004Z,-0.86
2023-01-08T04:09:59.901Z,-0.83
2023-01-08T04:12:27.814Z,-0.59
2023-01-08T04:14:55.714Z,-0.51
2023-01-08T04:17:24.999Z,-0.57
2023-01-08T04:19:52.931Z,-0.43
2023-01-08T04:22:20.838Z,-0.50
2023-01-08T04:24:48.793Z,-0.64
2023-01-08T04:27:16.757Z,-0.50
2023-01-08T04:29:44.680Z,-0.47
2023-01-08T04:32:12.586Z,-0.40
2023-01-08T04:34:41.860Z,-0.45
2023-01-08T04:37:09.769Z,-0.29
2023-01-08T04:39:37.670Z,-0.22
2023-01-08T04:42:05.765Z,-0.36
2023-01-08T04:44:33.678Z,-0.42
2023-01-08T04:47:01.604Z,-0.45
2023-01-08T04:49:29.537Z,-0.48
2023-01-08T04:51:58.875Z,-0.38
2023-01-08T04:54:26.826Z,-0.65
2023-01-08T04:56:54.705Z,-0.45
2023-01-08T04:59:22.613Z,-0.08
2023-01-08T05:01:50.658Z,-0.15
2023-01-08T05:04:18.648Z,-0.34
2023-01-08T05:06:46.624Z,-0.12
2023-01-08T05:09:15.968Z,-0.14
2023-01-08T05:11:44.254Z,-0.18
2023-01-08T05:14:12.297Z,-0.20
2023-01-08T05:16:40.256Z,-0.02
2023-01-08T05:19:08.498Z,0.00
2023-01-08T05:21:36.445Z,0.02
2023-01-08T05:24:04.503Z,0.17
2023-01-08T05:26:33.830Z,-0.01
2023-01-08T05:29:01.777Z,0.06
2023-01-08T05:31:30.300Z,0.32
2023-01-08T05:33:59.136Z,0.26
2023-01-08T05:36:27.030Z,0.27
2023-01-08T05:38:54.992Z,0.14
2023-01-08T05:41:22.907Z,0.17
2023-01-08T05:43:52.200Z,0.26
2023-01-08T05:46:20.224Z,0.20
2023-01-08T05:48:48.244Z,0.34
2023-01-08T05:51:16.282Z,0.35
2023-01-08T05:53:44.162Z,0.37
2023-01-08T05:56:13.203Z,0.37
2023-01-08T05:58:41.207Z,0.38
2023-01-08T06:01:12.757Z,0.37
2023-01-08T06:03:40.995Z,0.32
2023-01-08T06:06:09.901Z,0.31
2023-01-08T06:08:37.823Z,0.26
2023-01-08T06:11:07.125Z,0.41
2023-01-08T06:13:35.882Z,0.44
2023-01-08T06:16:03.900Z,0.54
2023-01-08T06:18:33.240Z,0.25
2023-01-08T06:21:01.293Z,0.43
2023-01-08T06:23:29.405Z,0.39
2023-01-08T06:25:59.435Z,0.32
2023-01-08T06:28:27.862Z,0.47
2023-01-08T06:30:55.792Z,0.55
2023-01-08T06:33:23.711Z,0.38
2023-01-08T06:35:53.019Z,0.43
2023-01-08T06:38:20.930Z,0.27
2023-01-08T06:40:49.225Z,0.29
2023-01-08T06:43:17.726Z,0.21
2023-01-08T06:45:45.618Z,0.23
2023-01-08T06:48:13.543Z,0.28
2023-01-08T06:50:41.426Z,0.30
2023-01-08T06:53:10.732Z,0.14
2023-01-08T06:55:38.731Z,0.21
2023-01-08T06:58:06.936Z,0.38
2023-01-08T07:00:34.843Z,0.47
2023-01-08T07:03:02.912Z,0.56
2023-01-08T07:05:30.979Z,0.63
2023-01-08T07:07:58.860Z,0.65
2023-01-08T07:10:28.205Z,0.48
2023-01-08T07:12:56.084Z,0.25
2023-01-08T07:15:24.038Z,0.10
2023-01-08T07:17:52.014Z,0.30
2023-01-08T07:20:20.070Z,0.13
2023-01-08T07:22:48.051Z,0.19
2023-01-08T07:25:15.997Z,0.23
2023-01-08T07:27:45.291Z,0.18
2023-01-08T07:30:28.143Z,0.19
2023-01-08T07:32:59.554Z,0.31
2023-01-08T07:35:27.510Z,0.36
2023-01-08T07:37:55.522Z,0.54
2023-01-08T07:40:23.553Z,0.58
2023-01-08T07:43:00.403Z,0.74
2023-01-08T07:45:28.727Z,0.86
2023-01-08T07:47:58.006Z,0.84
2023-01-08T07:50:26.285Z,0.92
2023-01-08T07:52:54.212Z,0.93
2023-01-08T07:55:22.244Z,0.93
2023-01-08T07:57:50.139Z,0.89
2023-01-08T08:00:20.041Z,0.93
2023-01-08T08:02:48.136Z,1.02
2023-01-08T08:05:17.808Z,1.04
2023-01-08T08:07:45.803Z,1.13
2023-01-08T08:10:13.783Z,1.22
2023-01-08T08:12:41.687Z,1.42
2023-01-08T08:15:10.950Z,1.38
2023-01-08T08:17:40.266Z,1.21
2023-01-08T08:20:09.874Z,1.38
2023-01-08T08:22:37.774Z,1.43
2023-01-08T08:25:06.387Z,1.51
2023-01-08T08:27:34.314Z,1.43
2023-01-08T08:30:02.300Z,1.56
2023-01-08T08:32:30.212Z,1.65
2023-01-08T08:34:59.556Z,1.85
2023-01-08T08:37:27.456Z,1.87
2023-01-08T08:39:55.340Z,1.95
2023-01-08T08:42:23.271Z,1.95
2023-01-08T08:44:51.160Z,1.95
2023-01-08T08:47:19.073Z,2.00
2023-01-08T08:49:46.977Z,2.25
2023-01-08T08:52:16.261Z,2.45
2023-01-08T08:54:44.149Z,2.35
2023-01-08T08:57:12.532Z,2.61
2023-01-08T08:59:40.449Z,2.63
2023-01-08T09:02:08.820Z,2.64
2023-01-08T09:04:36.892Z,2.91
2023-01-08T09:07:04.821Z,2.94
2023-01-08T09:09:34.119Z,2.92
2023-01-08T09:12:02.260Z,3.31
2023-01-08T09:14:30.183Z,3.33
2023-01-08T09:16:58.090Z,3.46
2023-01-08T09:19:25.964Z,3.62
2023-01-08T09:21:53.898Z,3.51
2023-01-08T09:24:21.807Z,3.69
2023-01-08T09:26:51.096Z,3.59
2023-01-08T09:29:19.060Z,3.60
2023-01-08T09:31:47.420Z,3.58
2023-01-08T09:34:15.371Z,3.88
2023-01-08T09:36:43.247Z,4.04
2023-01-08T09:39:11.392Z,3.92
2023-01-08T09:41:42.598Z,3.93
2023-01-08T09:44:16.273Z,4.27
2023-01-08T09:46:44.581Z,4.18
2023-01-08T09:49:15.923Z,4.02
2023-01-08T09:51:44.160Z,4.17
2023-01-08T09:54:15.564Z,4.16
2023-01-08T09:56:44.082Z,3.91
2023-01-08T09:59:15.974Z,4.18
2023-01-08T10:01:44.749Z,4.52
2023-01-08T10:04:16.111Z,4.43
2023-01-08T10:06:51.927Z,4.36
2023-01-08T10:09:22.762Z,3.73
2023-01-08T10:11:51.702Z,3.54
2023-01-08T10:14:24.191Z,3.64
2023-01-08T10:16:55.237Z,3.69
2023-01-08T10:19:23.644Z,3.66
2023-01-08T10:21:51.802Z,3.94
2023-01-08T10:24:32.280Z,4.00
2023-01-08T10:27:07.158Z,4.28
2023-01-08T10:29:36.496Z,4.16
2023-01-08T10:32:10.425Z,4.15
2023-01-08T10:34:45.004Z,4.19
2023-01-08T10:37:17.857Z,4.21
2023-01-08T10:39:48.059Z,4.25
2023-01-08T10:42:17.833Z,4.17
2023-01-08T10:44:54.713Z,4.03
2023-01-08T10:47:23.458Z,4.12
2023-01-08T10:49:51.508Z,4.09
2023-01-08T10:52:32.797Z,4.11
2023-01-08T10:55:13.388Z,4.14
2023-01-08T10:57:42.188Z,4.19
2023-01-08T11:00:26.444Z,3.91
2023-01-08T11:02:54.432Z,3.82
2023-01-08T11:05:30.795Z,3.77
2023-01-08T11:08:00.049Z,3.76
2023-01-08T11:10:28.799Z,3.74
2023-01-08T11:12:58.340Z,3.90
2023-01-08T11:15:32.197Z,3.88
2023-01-08T11:18:08.281Z,4.10
2023-01-08T11:20:36.663Z,4.33
2023-01-08T11:23:07.902Z,4.50
2023-01-08T11:25:36.107Z,4.59
2023-01-08T11:28:06.162Z,4.61
2023-01-08T11:30:37.672Z,4.73
2023-01-08T11:33:06.801Z,4.64
2023-01-08T11:35:37.798Z,4.65
2023-01-08T11:38:08.294Z,4.86
2023-01-08T11:40:41.607Z,4.65
2023-01-08T11:43:24.483Z,4.72
2023-01-08T11:46:31.437Z,4.46
2023-01-08T11:49:12.326Z,4.02
2023-01-08T11:51:55.915Z,3.97
2023-01-08T11:54:38.233Z,4.09
2023-01-08T11:57:17.612Z,3.86
2023-01-08T11:59:57.352Z,4.00
2023-01-08T12:02:35.610Z,3.96
2023-01-08T12:05:23.328Z,4.04
2023-01-08T12:07:59.065Z,4.16
2023-01-08T12:10:32.048Z,3.98
2023-01-08T12:13:12.006Z,4.07
2023-01-08T12:15:51.629Z,3.93
2023-01-08T12:18:34.427Z,3.87
2023-01-08T12:21:07.647Z,3.85
2023-01-08T12:23:47.443Z,3.87
2023-01-08T12:26:20.520Z,4.03
2023-01-08T12:29:11.734Z,3.96
2023-01-08T12:32:03.064Z,3.89
2023-01-08T12:34:39.868Z,4.04
2023-01-08T12:37:14.455Z,4.04
2023-01-08T12:39:48.802Z,4.17
2023-01-08T12:42:24.395Z,4.22
2023-01-08T12:44:54.535Z,4.23
2023-01-08T12:47:25.663Z,4.07
2023-01-08T12:50:02.246Z,4.11
2023-01-08T12:52:36.785Z,3.96
2023-01-08T12:55:06.811Z,4.01
2023-01-08T12:57:39.095Z,3.98
2023-01-08T13:00:11.712Z,3.85
2023-01-08T13:02:46.102Z,3.87
2023-01-08T13:05:31.491Z,3.91
2023-01-08T13:08:01.140Z,3.89
2023-01-08T13:10:35.529Z,3.80
2023-01-08T13:13:03.852Z,3.82
2023-01-08T13:15:32.626Z,3.97
2023-01-08T13:18:07.166Z,3.78
2023-01-08T13:20:36.599Z,3.82
2023-01-08T13:23:06.375Z,3.76
2023-01-08T13:25:36.280Z,3.79
2023-01-08T13:28:19.899Z,3.82
2023-01-08T13:30:49.124Z,3.75
2023-01-08T13:33:28.635Z,3.76
2023-01-08T13:36:16.053Z,3.73
2023-01-08T13:38:44.636Z,3.68
2023-01-08T13:41:29.583Z,3.68
2023-01-08T13:44:01.132Z,3.81
2023-01-08T13:46:29.343Z,3.84
2023-01-08T13:49:02.120Z,3.82
2023-01-08T13:51:35.370Z,3.97
2023-01-08T13:54:09.369Z,4.16
2023-01-08T13:56:37.504Z,4.37
2023-01-08T13:59:06.356Z,4.24
2023-01-08T14:01:34.337Z,4.24
2023-01-08T14:04:02.275Z,4.22
2023-01-08T14:06:31.446Z,4.17
2023-01-08T14:09:02.156Z,4.10
2023-01-08T14:11:31.760Z,3.94
2023-01-08T14:13:59.787Z,3.82
2023-01-08T14:16:27.790Z,3.85
2023-01-08T14:18:59.420Z,3.98
2023-01-08T14:21:27.948Z,3.75
2023-01-08T14:23:56.145Z,3.96
2023-01-08T14:26:29.610Z,3.90
2023-01-08T14:28:57.695Z,4.09
2023-01-08T14:31:26.885Z,4.12
2023-01-08T14:33:56.142Z,4.04
2023-01-08T14:36:24.630Z,4.05
2023-01-08T14:38:52.713Z,3.97
2023-01-08T14:41:47.627Z,3.90
2023-01-08T14:44:19.013Z,4.03
2023-01-08T14:46:49.780Z,4.20
2023-01-08T14:49:21.986Z,4.05
2023-01-08T14:51:51.318Z,3.91
2023-01-08T14:54:23.357Z,4.00
2023-01-08T14:56:55.211Z,3.91
2023-01-08T14:59:28.439Z,3.71
2023-01-08T15:01:59.665Z,3.65
2023-01-08T15:04:29.111Z,3.82
2023-01-08T15:07:07.153Z,3.74
2023-01-08T15:09:36.258Z,3.45
2023-01-08T15:12:06.896Z,3.17
2023-01-08T15:14:36.960Z,3.04
2023-01-08T15:17:10.371Z,2.78
2023-01-08T15:19:42.424Z,2.63
2023-01-08T15:22:17.089Z,2.53
2023-01-08T15:24:45.179Z,2.43
2023-01-08T15:27:20.141Z,2.33
2023-01-08T15:29:49.945Z,2.12
2023-01-08T15:32:23.346Z,1.94
2023-01-08T15:34:51.295Z,1.87
2023-01-08T15:37:19.212Z,1.67
2023-01-08T15:39:47.111Z,1.64
2023-01-08T15:42:37.827Z,1.45
2023-01-08T15:45:06.526Z,1.38
2023-01-08T15:47:34.411Z,1.38
2023-01-08T15:50:02.332Z,1.38
2023-01-08T15:52:30.687Z,1.27
2023-01-08T15:54:59.032Z,1.23
2023-01-08T15:57:30.224Z,1.19
2023-01-08T15:59:58.269Z,1.11
2023-01-08T16:02:26.374Z,1.11
2023-01-08T16:04:54.544Z,1.12
2023-01-08T16:07:23.309Z,1.31
2023-01-08T16:09:51.273Z,1.38
2023-01-08T16:12:19.327Z,1.35
2023-01-08T16:14:48.686Z,1.50
2023-01-08T16:17:16.601Z,1.51
2023-01-08T16:19:44.502Z,1.37
2023-01-08T16:22:12.453Z,1.29
2023-01-08T16:24:40.698Z,1.28
2023-01-08T16:27:09.933Z,1.34
2023-01-08T16:29:37.902Z,1.54
2023-01-08T16:32:07.443Z,1.56
2023-01-08T16:34:35.464Z,1.82
2023-01-08T16:37:03.367Z,1.79
2023-01-08T16:39:32.190Z,1.82
2023-01-08T16:42:00.296Z,1.59
2023-01-08T16:44:28.884Z,1.54
2023-01-08T16:46:57.351Z,1.41
2023-01-08T16:49:26.676Z,1.26
2023-01-08T16:51:54.942Z,1.34
2023-01-08T16:54:22.841Z,1.44
2023-01-08T16:56:50.740Z,1.35
2023-01-08T16:59:23.620Z,1.34
2023-01-08T17:01:52.146Z,1.35
2023-01-08T17:04:20.213Z,1.50
2023-01-08T17:06:50.052Z,1.64
2023-01-08T17:09:18.019Z,1.71
2023-01-08T17:11:47.729Z,1.80
2023-01-08T17:14:15.693Z,1.72
2023-01-08T17:16:45.569Z,1.60
2023-01-08T17:19:14.069Z,1.71
2023-01-08T17:21:42.094Z,1.62
2023-01-08T17:24:11.387Z,1.54
2023-01-08T17:26:39.314Z,1.64
2023-01-08T17:29:07.556Z,1.64
2023-01-08T17:31:39.968Z,1.85
2023-01-08T17:34:09.498Z,1.84
2023-01-08T17:36:37.428Z,1.43
2023-01-08T17:39:05.486Z,1.29
2023-01-08T17:41:53.558Z,1.45
2023-01-08T17:44:21.489Z,1.53
2023-01-08T17:46:49.581Z,1.47
2023-01-08T17:49:17.832Z,1.32
2023-01-08T17:51:46.272Z,1.09
2023-01-08T17:54:15.518Z,0.99
2023-01-08T17:56:45.071Z,0.73
2023-01-08T17:59:13.969Z,0.55
2023-01-08T18:01:41.957Z,0.48
2023-01-08T18:04:09.899Z,0.38
2023-01-08T18:06:37.845Z,0.29
2023-01-08T18:09:05.817Z,0.21
2023-01-08T18:11:34.171Z,0.08
2023-01-08T18:14:03.881Z,0.00
2023-01-08T18:16:32.843Z,0.03
2023-01-08T18:19:01.282Z,-0.05
2023-01-08T18:21:29.746Z,0.16
2023-01-08T18:23:58.768Z,0.15
2023-01-08T18:26:26.686Z,0.12
2023-01-08T18:28:54.551Z,0.13
2023-01-08T18:31:24.235Z,0.23
2023-01-08T18:33:52.719Z,0.33
2023-01-08T18:36:21.280Z,0.41
2023-01-08T18:38:49.870Z,0.42
2023-01-08T18:41:33.115Z,0.73
2023-01-08T18:44:01.231Z,0.68
2023-01-08T18:46:30.663Z,0.75
2023-01-08T18:48:58.557Z,0.73
2023-01-08T18:51:26.475Z,0.79
2023-01-08T18:53:55.638Z,0.99
2023-01-08T18:56:29.125Z,1.06
2023-01-08T18:58:57.146Z,1.07
2023-01-08T19:01:25.964Z,1.10
2023-01-08T19:03:55.755Z,1.15
2023-01-08T19:06:24.114Z,1.15
2023-01-08T19:08:52.082Z,1.10
2023-01-08T19:11:20.181Z,0.99
2023-01-08T19:13:48.138Z,0.98
2023-01-08T19:16:18.497Z,0.96
2023-01-08T19:18:46.468Z,1.06
2023-01-08T19:21:17.716Z,1.39
2023-01-08T19:23:45.722Z,1.48
2023-01-08T19:26:14.734Z,1.35
2023-01-08T19:28:42.803Z,1.30
2023-01-08T19:31:13.028Z,1.14
2023-01-08T19:33:41.082Z,1.28
2023-01-08T19:36:12.573Z,1.31
2023-01-08T19:38:41.895Z,1.25
2023-01-08T19:41:30.908Z,1.25
2023-01-08T19:43:58.458Z,1.52
2023-01-08T19:46:26.654Z,1.29
2023-01-08T19:48:57.358Z,1.40
2023-01-08T19:51:26.008Z,1.41
2023-01-08T19:53:56.782Z,1.32
2023-01-08T19:56:24.806Z,1.35
2023-01-08T19:58:52.732Z,1.25
2023-01-08T20:01:22.199Z,1.22
2023-01-08T20:03:50.354Z,1.25
2023-01-08T20:06:19.818Z,1.26
2023-01-08T20:08:47.937Z,1.42
2023-01-08T20:11:18.219Z,1.56
2023-01-08T20:13:46.194Z,1.68
2023-01-08T20:16:16.354Z,1.56
2023-01-08T20:18:44.805Z,1.23
2023-01-08T20:21:15.415Z,1.09
2023-01-08T20:23:44.351Z,1.16
2023-01-08T20:26:14.459Z,1.14
2023-01-08T20:28:44.557Z,1.12
2023-01-08T20:31:13.939Z,1.23
2023-01-08T20:33:43.112Z,0.99
2023-01-08T20:36:12.111Z,1.02
2023-01-08T20:38:40.061Z,1.04
2023-01-08T20:41:08.343Z,1.28
2023-01-08T20:43:36.570Z,1.13
2023-01-08T20:46:07.041Z,1.36
2023-01-08T20:48:43.006Z,1.01
2023-01-08T20:51:14.729Z,1.25
2023-01-08T20:53:42.737Z,0.88
2023-01-08T20:56:12.311Z,0.77
2023-01-08T20:58:42.571Z,0.90
2023-01-08T21:01:13.594Z,0.68
2023-01-08T21:03:42.283Z,0.57
2023-01-08T21:06:11.575Z,0.50
2023-01-08T21:08:40.622Z,0.38
2023-01-08T21:11:10.277Z,0.47
2023-01-08T21:13:39.010Z,0.35
2023-01-08T21:16:09.716Z,0.37
2023-01-08T21:18:40.633Z,0.33
2023-01-08T21:21:08.793Z,0.37
2023-01-08T21:23:36.686Z,0.74
2023-01-08T21:26:07.314Z,0.79
2023-01-08T21:28:35.526Z,0.83
2023-01-08T21:31:08.042Z,0.85
2023-01-08T21:33:36.121Z,0.79
2023-01-08T21:36:06.456Z,0.61
2023-01-08T21:38:34.634Z,0.76
2023-01-08T21:41:03.212Z,0.46
2023-01-08T21:43:48.892Z,0.45
2023-01-08T21:46:17.173Z,0.26
2023-01-08T21:48:49.855Z,0.16
2023-01-08T21:51:36.781Z,0.05
2023-01-08T21:54:05.111Z,-0.03
2023-01-08T21:56:33.289Z,0.09
2023-01-08T21:59:01.157Z,0.21
2023-01-08T22:01:29.353Z,0.27
2023-01-08T22:03:57.361Z,0.38
2023-01-08T22:06:26.681Z,0.50
2023-01-08T22:08:56.884Z,0.42
2023-01-08T22:11:24.880Z,0.26
2023-01-08T22:13:52.767Z,0.11
2023-01-08T22:16:20.703Z,0.38
2023-01-08T22:18:48.625Z,0.39
2023-01-08T22:21:16.527Z,0.25
2023-01-08T22:23:45.774Z,0.25
2023-01-08T22:26:14.346Z,-0.02
2023-01-08T22:28:42.287Z,-0.11
2023-01-08T22:31:11.458Z,0.06
2023-01-08T22:33:39.705Z,0.29
2023-01-08T22:36:10.049Z,0.16
2023-01-08T22:38:38.648Z,0.10
2023-01-08T22:41:12.431Z,0.18
2023-01-08T22:43:40.335Z,0.18
2023-01-08T22:46:08.293Z,-0.05
2023-01-08T22:48:37.419Z,-0.12
2023-01-08T22:51:05.970Z,-0.10
2023-01-08T22:53:33.899Z,-0.02
2023-01-08T22:56:01.821Z,-0.11
2023-01-08T22:58:31.103Z,-0.17
2023-01-08T23:00:59.561Z,-0.11
2023-01-08T23:03:29.244Z,-0.17
2023-01-08T23:06:02.208Z,-0.18
2023-01-08T23:08:30.218Z,-0.14
2023-01-08T23:10:58.267Z,-0.17
2023-01-08T23:13:26.176Z,-0.15
2023-01-08T23:15:55.621Z,-0.07
2023-01-08T23:18:23.541Z,-0.03
2023-01-08T23:20:51.469Z,0.02
2023-01-08T23:23:19.383Z,0.01
2023-01-08T23:25:47.297Z,0.13
2023-01-08T23:28:15.204Z,0.32
2023-01-08T23:30:43.198Z,0.30
2023-01-08T23:33:12.504Z,0.22
2023-01-08T23:35:40.495Z,0.33
2023-01-08T23:38:08.479Z,0.39
2023-01-08T23:40:36.373Z,0.25
2023-01-08T23:43:04.314Z,0.23
2023-01-08T23:45:32.227Z,0.39
2023-01-08T23:48:00.137Z,0.36
2023-01-08T23:50:29.425Z,0.25
2023-01-08T23:52:57.380Z,0.25
2023-01-08T23:55:25.439Z,0.39
2023-01-08T23:57:53.395Z,0.09
